• Join FlightAware (Why Join?)
  • Login
  • US Flag 
05:57AM EDT


 

Airport Tracker/Info


-or-


 

Live Flight TrackerFlight Track Log ✈ LOT396 ✈ 01-Jul-2013 ✈ EDDF / FRA - EPWA / WAW

Flight Track Log - Related Links

Times and Time Zones

All times are in EDT time to prevent confusion due to time zone crossing. See the LOT396 flight status page for this flight to view local times or setup timezone preferences in your user account.

Time Position Orientation Groundspeed Altitude Reporting Facility
EDT Latitude Longitude Course Direction KTS MPH feet Rate Location/Type
11:02AM 51.1836 14.1691 70° East  Level Estimated
11:03AM 51.2096 14.3169 74° East  Level Estimated
11:04AM 51.2355 14.4649 74° East  Level Estimated
11:05AM 51.2612 14.6130 74° East  Level Estimated
11:06AM 51.2867 14.7613 75° East  Level Estimated
11:07AM 51.3120 14.9097 75° East  Level Estimated
11:08AM 51.3371 15.0584 75° East  Level Estimated
11:09AM 51.3620 15.2072 75° East  Level Estimated
11:10AM 51.3867 15.3561 75° East  Level Estimated
11:11AM 51.4113 15.5052 75° East  Level Estimated
11:12AM 51.4357 15.6545 75° East  Level Estimated
11:13AM 51.4598 15.8039 75° East  Level Estimated
11:14AM 51.4838 15.9535 76° East  Level Estimated
11:15AM 51.5076 16.1032 76° East  Level Estimated
11:16AM 51.5312 16.2531 76° East  Level Estimated
11:17AM 51.5546 16.4032 76° East  Level Estimated
11:18AM 51.5778 16.5534 76° East  Level Estimated
11:19AM 51.6008 16.7038 76° East  Level Estimated
11:20AM 51.6237 16.8543 76° East  Level Estimated
11:21AM 51.6463 17.0049 76° East  Level Estimated
11:22AM 51.6688 17.1557 76° East  Level Estimated
11:23AM 51.6910 17.3067 77° East  Level Estimated
11:24AM 51.7131 17.4578 77° East  Level Estimated
11:25AM 51.7350 17.6091 77° East  Level Estimated
11:26AM 51.7566 17.7605 77° East  Level Estimated
11:27AM 51.7781 17.9120 77° East  Level Estimated
11:28AM 51.7994 18.0637 77° East  Level Estimated
11:29AM 51.8205 18.2155 77° East  Level Estimated
11:30AM 51.8414 18.3675 77° East  Level Estimated
11:31AM 51.8620 18.5196 78° East  Level Estimated
11:32AM 51.8825 18.6719 78° East  Level Estimated
11:33AM 51.9029 18.8242 78° East  Level Estimated
11:34AM 51.9230 18.9768 78° East  Level Estimated
11:35AM 51.9429 19.1294 78° East  Level Estimated
11:36AM 51.9626 19.2822 78° East  Level Estimated
11:37AM 51.9821 19.4352 78° East  Level Estimated
11:38AM 52.0014 19.5882 78° East  Level Estimated
11:39AM 52.0205 19.7414 78° East  Level Estimated
11:40AM 52.0394 19.8948 79° East  Level Estimated
11:41AM 52.0582 20.0482 79° East  Level Estimated
11:42AM 52.0767 20.2018 79° East  Level Estimated
11:43AM 52.0950 20.3555 79° East  Level Estimated
11:44AM 52.1131 20.5094 79° East  Level Estimated
11:45AM 52.1310 20.6633 79° East  Level Estimated
11:46AM 52.1487 20.8174 79° East  Level Estimated
11:47AM 52.1657 20.9671 79° East  Level Estimated
11:48AM 52.1657 20.9671 90° East  Level Estimated
11:49AM 52.1657 20.9671 90° East  Level Estimated
11:50AM 52.1657 20.9671 90° East  Level Estimated
11:51AM 52.1657 20.9671 90° East  Level Estimated
11:52AM 52.1657 20.9671 90° East  Level Estimated
11:53AM 52.1657 20.9671 90° East  Level Estimated
11:54AM 52.1657 20.9671 90° East  Level Estimated
11:55AM 52.1657 20.9671 90° East  Level Estimated
11:56AM 52.1657 20.9671 90° East  Level Estimated
11:57AM 52.1657 20.9671 90° East  Level Estimated
11:58AM 52.1657 20.9671 90° East  Level Estimated